Time;durP1;ratioP1;P1;durP2;ratioP2;P2;SDS_P1;SDS_P2;PMS_P1;PMS_P2;Temp;Humidity;BMP_temperature;BMP_pressure;BME280_temperature;BME280_humidity;BME280_pressure;Samples;Min_cycle;Max_cycle;Signal;HPM_P1;HPM_P2
2022/12/19 00:01:17;;;;;;;;;;;;;;;;;;;;;
2022/12/19 00:03:46;;;;;;;77.30;35.10;;;;;;;-0.88;88.42;100938.40;86450;1326;22568;-74
2022/12/19 00:06:13;;;;;;;35.00;20.00;;;;;;;-0.88;88.35;100928.91;85893;1312;98935;-72
2022/12/19 00:08:26;;;;;;;68.70;35.30;;;;;;;-0.88;88.36;100931.69;86274;1326;22580;-73
2022/12/19 00:11:01;;;;;;;81.10;39.10;;;;;;;-0.89;88.35;100930.63;86326;1308;22635;-73
2022/12/19 00:13:13;;;;;;;67.80;35.60;;;;;;;-0.88;88.50;100928.23;86353;1299;22574;-74
2022/12/19 00:15:21;;;;;;;63.10;33.10;;;;;;;-0.89;88.51;100925.11;86445;1309;24244;-73
2022/12/19 00:18:03;;;;;;;74.90;37.60;;;;;;;-0.90;88.40;100918.35;86353;1295;99979;-76
2022/12/19 00:21:13;;;;;;;;;;;;;;;;;;;;;
2022/12/19 00:24:29;;;;;;;79.00;41.10;;;;;;;-0.97;88.28;100920.20;85996;1319;22496;-73
2022/12/19 00:26:46;;;;;;;57.20;31.30;;;;;;;-0.96;88.16;100920.90;86207;1329;23081;-72
2022/12/19 00:29:13;;;;;;;75.20;36.20;;;;;;;-0.96;88.18;100923.16;86168;1305;22526;-73
2022/12/19 00:31:28;;;;;;;9.80;8.00;;;;;;;-0.96;88.41;100924.20;86069;1307;98100;-72
2022/12/19 00:34:35;;;;;;;;;;;;;;;-0.95;88.29;100922.16;86224;1309;22768;-72
2022/12/19 00:40:03;;;;;;;77.80;39.40;;;;;;;-0.92;88.37;100913.08;86048;1318;22553;-72
2022/12/19 00:42:28;;;;;;;66.60;33.60;;;;;;;-0.89;88.30;100914.05;86350;1302;100566;-73
2022/12/19 00:45:29;;;;;;;15.30;10.60;;;;;;;-0.88;88.52;100911.66;86212;1323;23261;-72
2022/12/19 00:47:53;;;;;;;29.40;17.30;;;;;;;-0.98;88.59;100891.85;86435;1302;22552;-72
2022/12/19 00:53:50;;;;;;;83.30;40.70;;;;;;;-0.82;88.49;100909.89;86373;1302;22616;-73
2022/12/19 00:56:31;;;;;;;62.70;34.50;;;;;;;-0.82;88.71;100911.14;86715;1318;22523;-73
2022/12/19 00:58:53;;;;;;;75.00;37.60;;;;;;;-0.83;88.64;100914.56;86824;1297;22521;-72
2022/12/19 01:01:32;;;;;;;83.40;40.70;;;;;;;-0.83;88.63;100913.86;86554;1298;98877;-71
2022/12/19 01:04:13;;;;;;;67.30;33.70;;;;;;;-0.84;88.73;100910.04;86727;1321;24322;-74
2022/12/19 01:06:35;;;;;;;43.60;23.80;;;;;;;-0.88;88.69;100902.70;86943;1302;98530;-72
2022/12/19 01:15:02;;;;;;;79.60;38.30;;;;;;;-0.84;88.75;100881.05;86575;1296;23298;-72
2022/12/19 01:17:28;;;;;;;93.20;46.80;;;;;;;-0.85;88.62;100877.39;86572;1295;22599;-72
2022/12/19 01:23:21;;;;;;;85.50;42.00;;;;;;;-0.90;88.54;100870.02;86253;1325;22240;-73
2022/12/19 01:25:30;;;;;;;76.00;38.60;;;;;;;-0.91;88.76;100868.42;85888;1317;98530;-72
2022/12/19 01:28:12;;;;;;;91.10;43.10;;;;;;;-0.93;88.62;100862.14;85749;1314;22562;-72
2022/12/19 01:33:01;;;;;;;75.70;38.20;;;;;;;-1.07;88.45;100844.50;85695;1319;25414;-73
2022/12/19 01:35:06;;;;;;;52.60;28.70;;;;;;;-1.00;88.40;100855.74;85431;1329;22517;-72
2022/12/19 01:37:22;;;;;;;31.00;18.10;;;;;;;-1.00;88.39;100852.80;85376;1324;98935;-72
2022/12/19 01:39:34;;;;;;;8.60;7.60;;;;;;;-0.99;88.44;100847.98;85308;1322;22517;-72
2022/12/19 01:42:09;;;;;;;68.20;36.40;;;;;;;-0.98;88.51;100841.30;85477;1306;25524;-73
2022/12/19 01:44:25;;;;;;;56.30;27.20;;;;;;;-0.97;88.63;100838.56;85230;1326;22832;-72
2022/12/19 01:47:16;;;;;;;67.10;33.80;;;;;;;-0.97;88.54;100843.92;85290;1323;23644;-73
2022/12/19 01:49:55;;;;;;;75.00;38.20;;;;;;;-0.97;88.46;100845.99;84752;1326;99482;-73
2022/12/19 01:52:22;;;;;;;74.00;35.30;;;;;;;-0.97;88.61;100842.19;84755;1342;22556;-73
2022/12/19 01:54:58;;;;;;;77.20;38.10;;;;;;;-1.00;88.38;100832.10;84621;1324;99710;-74
2022/12/19 01:57:16;;;;;;;6.70;6.00;;;;;;;-0.98;88.46;100835.59;84894;1336;22550;-75
2022/12/19 01:59:42;;;;;;;14.20;9.80;;;;;;;-0.97;88.58;100833.58;85227;1322;22546;-74
2022/12/19 02:02:29;;;;;;;77.10;35.30;;;;;;;-0.94;88.62;100830.36;85578;1330;98218;-73
2022/12/19 02:08:33;;;;;;;7.60;6.00;;;;;;;-1.00;88.48;100807.09;85275;1327;98583;-74
2022/12/19 02:16:20;;;;;;;71.30;37.60;;;;;;;-0.91;88.70;100807.69;85226;1337;22640;-75
2022/12/19 02:18:56;;;;;;;;;;;;;;;;;;;;;
2022/12/19 02:21:48;;;;;;;68.40;37.60;;;;;;;-0.88;88.72;100808.10;85380;1319;22543;-74
2022/12/19 02:24:38;;;;;;;10.90;8.00;;;;;;;-0.89;88.92;100805.52;85710;1323;23432;-73
2022/12/19 02:27:12;;;;;;;10.10;7.80;;;;;;;-0.86;88.81;100803.32;85859;1312;25618;-74
2022/12/19 02:33:55;;;;;;;6.00;4.50;;;;;;;-0.97;88.90;100768.85;86182;1332;22608;-73
2022/12/19 02:36:40;;;;;;;54.90;28.80;;;;;;;-0.82;88.99;100786.16;85817;1320;22560;-75
2022/12/19 02:39:52;;;;;;;;;;;;;;;;;;;;;
2022/12/19 02:42:59;;;;;;;10.50;7.80;;;;;;;-0.97;89.02;100756.26;85545;1323;23530;-73
2022/12/19 02:46:02;;;;;;;8.50;6.60;;;;;;;-0.80;89.00;100778.30;85627;1309;22506;-72
2022/12/19 02:48:33;;;;;;;25.10;16.60;;;;;;;-0.81;89.09;100779.30;85540;1335;25103;-73
2022/12/19 02:51:18;;;;;;;63.40;30.40;;;;;;;-0.78;89.04;100780.59;85565;1335;98364;-73
2022/12/19 02:53:27;;;;;;;34.90;20.10;;;;;;;-0.79;88.97;100774.00;85530;1327;22548;-73
2022/12/19 02:55:55;;;;;;;66.80;33.70;;;;;;;-0.79;89.04;100771.06;85559;1317;100688;-75
2022/12/19 02:59:17;;;;;;;27.90;16.70;;;;;;;-0.79;89.25;100768.66;85677;1315;25303;-74
2022/12/19 03:02:47;;;;;;;12.40;9.40;;;;;;;-0.82;88.89;100760.29;85406;1313;99600;-73
2022/12/19 03:05:19;;;;;;;12.50;8.90;;;;;;;-0.79;89.15;100764.00;85372;1342;22949;-73
2022/12/19 03:08:30;;;;;;;;;;;;;;;;;;;;;
2022/12/19 03:11:16;;;;;;;;;;;;;;;;;;;;;
2022/12/19 03:13:39;;;;;;;71.10;37.60;;;;;;;-0.84;89.04;100750.40;85195;1326;99805;-75
2022/12/19 03:16:07;;;;;;;74.90;38.10;;;;;;;-0.80;89.41;100749.47;85055;1329;23690;-73
2022/12/19 03:18:36;;;;;;;10.10;9.10;;;;;;;-0.81;89.11;100747.03;85276;1328;22495;-75
2022/12/19 03:21:21;;;;;;;10.40;8.20;;;;;;;-0.81;89.25;100745.64;85044;1329;99503;-73
2022/12/19 03:24:12;;;;;;;79.90;40.70;;;;;;;-0.82;89.23;100744.08;85130;1320;22774;-74
2022/12/19 03:26:17;;;;;;;;;;;;;;;;;;;;;
2022/12/19 03:29:01;;;;;;;52.30;27.60;;;;;;;-0.85;89.14;100745.36;85500;1319;22706;-76
2022/12/19 03:34:49;;;;;;;69.80;37.60;;;;;;;-0.87;89.14;100751.90;85692;1311;23640;-77
2022/12/19 03:37:35;;;;;;;78.10;39.80;;;;;;;-0.88;89.13;100755.48;85605;1329;22494;-73
2022/12/19 03:40:26;;;;;;;;;;;;;;;;;;;;;
2022/12/19 03:45:32;;;;;;;73.80;39.40;;;;;;;-0.95;89.01;100757.70;85569;1317;98465;-72
2022/12/19 03:48:03;;;;;;;72.50;37.50;;;;;;;-0.97;89.14;100759.20;85710;1317;22517;-72
2022/12/19 03:50:12;;;;;;;64.00;35.60;;;;;;;-0.99;88.74;100762.24;85501;1303;99570;-73
2022/12/19 03:52:58;;;;;;;75.50;37.10;;;;;;;-1.06;89.20;100759.29;85552;1317;22552;-72
2022/12/19 03:55:30;;;;;;;65.50;30.90;;;;;;;-1.03;89.03;100773.86;85295;1316;22531;-70
2022/12/19 03:57:52;;;;;;;54.70;29.60;;;;;;;-1.12;89.00;100764.31;85301;1326;23458;-72
2022/12/19 04:00:06;;;;;;;62.20;32.20;;;;;;;-1.06;88.79;100772.22;85520;1323;22847;-72
2022/12/19 04:02:29;;;;;;;62.00;32.30;;;;;;;-1.08;89.02;100774.23;85462;1320;98485;-72
2022/12/19 04:05:29;;;;;;;63.30;32.60;;;;;;;-1.14;88.83;100760.27;84949;1324;555194;-72
2022/12/19 04:07:43;;;;;;;59.30;31.50;;;;;;;-1.13;88.65;100769.63;86481;1299;24296;-72
2022/12/19 04:10:01;;;;;;;60.70;32.00;;;;;;;-1.12;88.68;100770.36;86327;1311;22462;-74
2022/12/19 04:12:24;;;;;;;65.50;32.10;;;;;;;-1.13;88.61;100770.65;86481;1308;22501;-72
2022/12/19 04:14:46;;;;;;;61.80;31.70;;;;;;;-1.15;88.54;100766.80;86218;1307;98992;-71
2022/12/19 04:17:02;;;;;;;75.90;39.40;;;;;;;-1.16;88.54;100762.61;86256;1303;21873;-74
2022/12/19 04:19:30;;;;;;;69.00;37.00;;;;;;;-1.19;88.47;100758.95;87056;1294;317660;-71
2022/12/19 04:21:46;;;;;;;85.70;42.70;;;;;;;-1.18;88.58;100759.46;87157;1291;99498;-72
2022/12/19 04:24:10;;;;;;;87.80;42.10;;;;;;;-1.21;88.53;100756.46;87544;1288;24218;-74
2022/12/19 04:26:23;;;;;;;20.10;12.60;;;;;;;-1.19;88.49;100761.17;87340;1293;98656;-72
2022/12/19 04:28:37;;;;;;;17.80;12.50;;;;;;;-1.17;88.55;100749.84;87474;1294;22439;-72
2022/12/19 04:30:44;;;;;;;27.00;11.30;;;;;;;-1.17;88.62;100742.79;87708;1278;22375;-71
2022/12/19 04:33:00;;;;;;;83.50;41.40;;;;;;;-1.12;88.68;100744.64;87371;1287;98205;-72
2022/12/19 04:35:26;;;;;;;15.00;10.80;;;;;;;-1.11;88.71;100735.35;87523;1277;22644;-72
2022/12/19 04:37:31;;;;;;;41.90;13.10;;;;;;;-1.15;88.88;100721.96;87614;1284;22425;-73
2022/12/19 04:39:57;;;;;;;24.50;14.90;;;;;;;-1.12;88.73;100719.98;87388;1281;97563;-72
2022/12/19 04:42:08;;;;;;;28.70;17.60;;;;;;;-1.06;88.69;100720.48;87499;1281;22526;-73
2022/12/19 04:44:13;;;;;;;10.70;8.90;;;;;;;-1.05;88.90;100723.80;87679;1282;99038;-72
2022/12/19 04:46:18;;;;;;;19.80;12.00;;;;;;;-1.03;88.88;100721.59;87503;1277;24270;-72
2022/12/19 04:48:34;;;;;;;64.10;32.80;;;;;;;-1.01;88.92;100722.52;87640;1292;22490;-75
2022/12/19 04:50:40;;;;;;;48.50;25.50;;;;;;;-1.00;88.95;100720.98;87403;1287;98247;-72
2022/12/19 04:52:44;;;;;;;8.70;6.70;;;;;;;-0.99;89.00;100717.39;87527;1285;22453;-73
2022/12/19 04:54:48;;;;;;;46.00;24.90;;;;;;;-0.99;89.03;100715.33;87417;1291;23005;-72
2022/12/19 04:57:04;;;;;;;80.00;39.60;;;;;;;-1.07;89.04;100696.65;87480;1295;97546;-72
2022/12/19 04:59:17;;;;;;;74.10;37.70;;;;;;;-0.96;88.99;100715.91;87385;1294;22871;-72
2022/12/19 05:01:28;;;;;;;74.90;38.40;;;;;;;-0.98;89.05;100710.34;87381;1280;22482;-72
2022/12/19 05:03:46;;;;;;;;;;;;;;;;;;;;;
2022/12/19 05:06:06;;;;;;;60.70;30.20;;;;;;;-1.01;89.04;100701.65;87714;1282;23138;-72
2022/12/19 05:08:10;;;;;;;59.60;30.50;;;;;;;-1.02;88.96;100695.57;87601;1292;98543;-71
2022/12/19 05:10:14;;;;;;;72.70;35.80;;;;;;;-1.03;89.08;100697.96;87675;1294;24260;-72
2022/12/19 05:12:22;;;;;;;64.30;34.00;;;;;;;-1.05;88.96;100693.08;87634;1288;22532;-73
2022/12/19 05:14:35;;;;;;;60.80;33.90;;;;;;;-1.07;88.88;100702.16;87415;1297;99285;-71
2022/12/19 05:16:37;;;;;;;62.30;34.70;;;;;;;-1.07;88.97;100706.98;87667;1291;22550;-72
2022/12/19 05:18:45;;;;;;;62.40;34.00;;;;;;;-1.09;88.89;100711.43;87608;1285;22476;-74
2022/12/19 05:20:49;;;;;;;77.50;38.90;;;;;;;-1.14;89.00;100711.65;87411;1293;98736;-72
2022/12/19 05:22:58;;;;;;;74.10;38.40;;;;;;;-1.12;88.86;100715.48;87210;1297;22504;-74
2022/12/19 05:25:04;;;;;;;16.60;10.30;;;;;;;-1.14;88.86;100711.47;87283;1292;22478;-72
2022/12/19 05:27:06;;;;;;;68.90;36.00;;;;;;;-1.13;88.94;100711.98;86388;1284;98728;-71
2022/12/19 05:29:08;;;;;;;63.70;32.80;;;;;;;-1.13;88.94;100712.70;86392;1286;22673;-71
2022/12/19 05:31:10;;;;;;;;;;;;;;;-1.15;88.78;100711.97;86445;1283;22597;-71
2022/12/19 05:33:11;;;;;;;76.20;40.50;;;;;;;-1.17;88.85;100708.29;86552;1275;84064;-71
2022/12/19 05:35:12;;;;;;;80.50;39.20;;;;;;;-1.18;88.81;100705.30;86515;1285;22919;-72
2022/12/19 05:37:14;;;;;;;;;;;;;;;-1.19;88.79;100702.02;86658;1278;24249;-72
2022/12/19 05:39:15;;;;;;;69.00;39.20;;;;;;;-1.21;88.81;100706.27;86548;1288;85228;-72
2022/12/19 05:41:19;;;;;;;60.10;33.70;;;;;;;-1.21;88.72;100707.14;86327;1285;22589;-71
2022/12/19 05:43:20;;;;;;;85.60;44.50;;;;;;;-1.21;88.83;100704.20;86333;1288;22485;-72
2022/12/19 05:45:33;;;;;;;81.20;43.00;;;;;;;-1.24;88.72;100698.59;86437;1287;99350;-71
2022/12/19 05:47:34;;;;;;;91.10;48.80;;;;;;;-1.21;88.84;100708.87;86418;1287;24294;-71
2022/12/19 05:49:35;;;;;;;91.30;48.80;;;;;;;-1.22;88.74;100710.39;86484;1284;22657;-73
2022/12/19 05:51:37;;;;;;;93.40;49.70;;;;;;;-1.23;88.77;100706.23;86168;1277;98977;-72
2022/12/19 05:53:38;;;;;;;;;;;;;;;-1.27;88.74;100706.11;86408;1278;24315;-72
2022/12/19 05:55:39;;;;;;;83.10;43.00;;;;;;;-1.27;88.69;100710.95;86504;1281;22477;-72
2022/12/19 05:57:40;;;;;;;;;;;;;;;-1.28;88.71;100704.88;86479;1275;99122;-71
2022/12/19 05:59:41;;;;;;;70.30;37.70;;;;;;;-1.30;88.65;100701.72;86662;1287;22530;-71
2022/12/19 06:01:42;;;;;;;74.10;39.30;;;;;;;-1.31;88.65;100703.07;86308;1286;24450;-71
2022/12/19 06:03:44;;;;;;;75.30;38.90;;;;;;;-1.32;88.63;100695.96;86354;1278;99561;-72
2022/12/19 06:05:46;;;;;;;85.00;47.30;;;;;;;-1.32;88.72;100693.55;86417;1285;22658;-72
2022/12/19 06:07:47;;;;;;;84.00;46.20;;;;;;;-1.32;88.71;100694.93;86438;1281;22465;-72
2022/12/19 06:09:48;;;;;;;29.80;18.50;;;;;;;-1.34;88.65;100693.86;86427;1278;99362;-71
2022/12/19 06:11:49;;;;;;;17.00;12.40;;;;;;;-1.33;88.70;100690.26;86544;1285;22532;-71
2022/12/19 06:13:50;;;;;;;51.60;27.40;;;;;;;-1.31;88.74;100691.50;86563;1274;26230;-71
2022/12/19 06:16:13;;;;;;;89.30;48.60;;;;;;;-1.29;88.74;100682.59;86557;1281;99400;-74
2022/12/19 06:18:15;;;;;;;41.40;25.50;;;;;;;-1.31;88.76;100677.88;86498;1283;22568;-71
2022/12/19 06:20:16;;;;;;;53.80;27.90;;;;;;;-1.30;88.81;100680.83;86294;1278;97777;-71
2022/12/19 06:22:17;;;;;;;79.90;43.90;;;;;;;-1.30;88.78;100684.14;86497;1284;23068;-71
2022/12/19 06:24:20;;;;;;;74.70;41.00;;;;;;;-1.30;88.81;100689.45;86702;1275;22569;-72
2022/12/19 06:26:27;;;;;;;81.30;44.60;;;;;;;-1.32;88.72;100688.90;86669;1282;98888;-72
2022/12/19 06:28:30;;;;;;;77.30;40.50;;;;;;;-1.33;88.75;100687.14;86750;1279;24270;-72
2022/12/19 06:30:31;;;;;;;76.30;40.10;;;;;;;-1.35;88.81;100687.09;86703;1278;22593;-71
2022/12/19 06:32:32;;;;;;;69.40;37.30;;;;;;;-1.36;88.68;100682.05;86322;1292;98241;-72
2022/12/19 06:34:35;;;;;;;56.30;30.70;;;;;;;-1.37;88.68;100688.23;86644;1281;22636;-74
2022/12/19 06:36:37;;;;;;;70.30;37.10;;;;;;;-1.38;88.63;100687.01;86606;1285;23399;-73
2022/12/19 06:38:38;;;;;;;45.70;23.70;;;;;;;-1.38;88.67;100685.47;86763;1292;97439;-73
2022/12/19 06:43:00;;;;;;;61.20;35.40;;;;;;;-1.39;88.73;100677.67;87037;1291;23333;-73
2022/12/19 06:45:01;;;;;;;;;;;;;;;-1.39;88.76;100677.34;86820;1286;98726;-72
2022/12/19 06:47:02;;;;;;;63.30;35.30;;;;;;;-1.40;88.71;100672.48;87138;1285;24368;-74
2022/12/19 06:49:04;;;;;;;17.90;14.00;;;;;;;-1.38;88.75;100677.71;86997;1292;23063;-73
2022/12/19 06:51:05;;;;;;;14.10;11.70;;;;;;;-1.37;88.89;100673.25;87050;1289;99408;-72
2022/12/19 06:53:09;;;;;;;86.40;42.30;;;;;;;-1.35;88.91;100674.52;87226;1293;23360;-73
2022/12/19 06:55:10;;;;;;;92.50;46.50;;;;;;;-1.33;88.76;100674.40;87000;1291;22640;-73
2022/12/19 06:57:11;;;;;;;75.60;40.80;;;;;;;-1.34;88.77;100669.55;87143;1280;99120;-73
2022/12/19 06:59:14;;;;;;;;;;;;;;;-1.34;88.94;100667.98;87237;1285;25376;-73
2022/12/19 07:01:16;;;;;;;95.10;46.10;;;;;;;-1.35;88.81;100667.42;87248;1284;24259;-73
2022/12/19 07:03:22;;;;;;;87.90;43.80;;;;;;;-1.35;88.86;100665.88;87256;1282;99642;-72
2022/12/19 07:05:23;;;;;;;93.90;50.20;;;;;;;-1.36;88.82;100671.36;86850;1280;22699;-73
2022/12/19 07:07:29;;;;;;;34.50;21.20;;;;;;;-1.38;88.80;100672.20;87009;1285;23245;-73
2022/12/19 07:09:32;;;;;;;85.90;44.40;;;;;;;-1.37;88.75;100678.09;87500;1287;99066;-75
2022/12/19 07:11:36;;;;;;;96.80;48.00;;;;;;;-1.38;88.91;100674.79;87426;1285;24296;-72
2022/12/19 07:13:40;;;;;;;;;;;;;;;-1.39;88.81;100678.89;87233;1278;22533;-75
2022/12/19 07:15:42;;;;;;;90.40;47.20;;;;;;;-1.40;88.78;100675.23;87183;1284;83971;-71
2022/12/19 07:17:43;;;;;;;;;;;;;;;-1.41;88.68;100677.63;86872;1301;22467;-73
2022/12/19 07:19:44;;;;;;;87.60;45.10;;;;;;;-1.42;88.71;100676.20;87180;1282;22726;-73
2022/12/19 07:21:45;;;;;;;;;;;;;;;-1.46;88.70;100672.48;86973;1285;98573;-73
2022/12/19 07:23:46;;;;;;;46.50;25.00;;;;;;;-1.46;88.72;100675.58;87179;1282;22474;-74
2022/12/19 07:25:47;;;;;;;74.00;35.70;;;;;;;-1.46;88.63;100668.16;87220;1281;22472;-72
2022/12/19 07:27:49;;;;;;;86.00;41.60;;;;;;;-1.45;88.65;100675.95;87115;1285;98047;-73
2022/12/19 07:29:50;;;;;;;79.10;38.60;;;;;;;-1.45;88.69;100677.33;87118;1295;23284;-72
2022/12/19 07:31:51;;;;;;;;;;;;;;;-1.46;88.61;100672.98;87427;1301;23027;-73
2022/12/19 07:33:52;;;;;;;88.10;44.80;;;;;;;-1.49;88.59;100677.23;87777;1292;83988;-72
2022/12/19 07:35:53;;;;;;;82.50;44.90;;;;;;;-1.50;88.54;100676.84;87737;1284;22494;-73
2022/12/19 07:38:05;;;;;;;96.10;51.60;;;;;;;-1.51;88.48;100679.90;87360;1294;22516;-73
2022/12/19 07:40:30;;;;;;;101.80;51.40;;;;;;;-1.53;88.46;100677.28;87918;1292;99087;-74
2022/12/19 07:42:42;;;;;;;109.10;55.10;;;;;;;-1.56;88.35;100681.51;87894;1285;22547;-71
2022/12/19 07:44:54;;;;;;;118.60;65.00;;;;;;;-1.57;88.39;100676.30;87539;1294;98340;-74
2022/12/19 07:47:01;;;;;;;124.80;67.80;;;;;;;-1.59;88.29;100676.11;87513;1300;24323;-74
2022/12/19 07:49:03;;;;;;;135.40;75.00;;;;;;;-1.59;88.31;100676.27;87358;1293;22504;-72
2022/12/19 07:51:09;;;;;;;131.90;76.40;;;;;;;-1.60;88.25;100673.65;87312;1287;98967;-74
2022/12/19 07:53:14;;;;;;;138.60;77.80;;;;;;;-1.63;88.26;100668.88;87311;1295;22488;-74
2022/12/19 07:55:16;;;;;;;113.30;67.20;;;;;;;-1.73;88.25;100649.30;87322;1278;22500;-73
2022/12/19 07:57:20;;;;;;;149.40;81.30;;;;;;;-1.62;88.22;100665.99;87273;1282;99440;-73
2022/12/19 07:59:32;;;;;;;73.60;40.50;;;;;;;-1.73;88.21;100647.60;86978;1295;22463;-73
2022/12/19 08:01:37;;;;;;;145.70;76.80;;;;;;;-1.61;88.23;100666.89;87276;1285;23004;-75
2022/12/19 08:03:39;;;;;;;51.50;30.20;;;;;;;-1.66;88.29;100653.13;87301;1309;100128;-73
2022/12/19 08:05:42;;;;;;;59.10;35.40;;;;;;;-1.58;88.33;100660.09;87332;1285;22581;-73
2022/12/19 08:07:44;;;;;;;97.30;50.50;;;;;;;-1.56;88.32;100662.21;87233;1281;23420;-75
2022/12/19 08:09:49;;;;;;;92.70;49.30;;;;;;;-1.54;88.42;100658.45;86998;1287;99136;-73
2022/12/19 08:11:57;;;;;;;40.60;24.40;;;;;;;-1.54;88.49;100657.59;86911;1294;22460;-73
2022/12/19 08:13:59;;;;;;;224.40;108.60;;;;;;;-1.56;88.50;100655.29;87136;1291;22496;-73
2022/12/19 08:16:01;;;;;;;212.90;105.50;;;;;;;-1.54;88.48;100654.82;86922;1292;98244;-74
2022/12/19 08:18:03;;;;;;;198.10;98.10;;;;;;;-1.65;88.41;100642.11;87018;1287;22587;-73
2022/12/19 08:20:06;;;;;;;150.40;77.30;;;;;;;-1.53;88.44;100655.39;86901;1281;22582;-74
2022/12/19 08:22:07;;;;;;;136.70;65.60;;;;;;;-1.55;88.52;100659.14;86857;1280;26595;-74
2022/12/19 08:24:08;;;;;;;117.30;56.00;;;;;;;-1.55;88.43;100652.93;86855;1288;22472;-73
2022/12/19 08:26:12;;;;;;;108.80;55.30;;;;;;;-1.57;88.38;100645.65;86827;1281;99385;-73
2022/12/19 08:28:13;;;;;;;86.20;46.70;;;;;;;-1.58;88.35;100643.55;86979;1285;23134;-73
2022/12/19 08:30:14;;;;;;;87.30;48.30;;;;;;;-1.59;88.34;100638.00;86937;1288;22445;-73
2022/12/19 08:32:15;;;;;;;80.60;41.90;;;;;;;-1.60;88.41;100638.31;86994;1284;98968;-74
2022/12/19 08:34:16;;;;;;;92.00;47.50;;;;;;;-1.60;88.30;100638.80;86995;1285;22688;-73
2022/12/19 08:36:20;;;;;;;93.00;50.00;;;;;;;-1.61;88.28;100635.36;87022;1291;22523;-74
2022/12/19 08:38:21;;;;;;;80.10;41.80;;;;;;;-1.62;88.29;100626.01;86858;1278;99277;-73
2022/12/19 08:40:23;;;;;;;90.80;45.60;;;;;;;-1.63;88.16;100630.83;87088;1283;22573;-73
2022/12/19 08:42:24;;;;;;;98.30;47.30;;;;;;;-1.65;88.20;100629.04;86842;1285;23238;-73
2022/12/19 08:44:25;;;;;;;132.30;66.00;;;;;;;-1.65;88.13;100625.40;86787;1285;98086;-73
2022/12/19 08:46:26;;;;;;;128.90;68.00;;;;;;;-1.66;88.12;100621.77;86946;1288;25213;-73
2022/12/19 08:48:28;;;;;;;144.20;70.90;;;;;;;-1.68;88.13;100616.53;86997;1292;24057;-73
2022/12/19 08:50:28;;;;;;;134.60;66.30;;;;;;;-1.69;88.00;100615.63;86704;1294;98444;-74
2022/12/19 08:52:31;;;;;;;122.10;63.20;;;;;;;-1.71;88.07;100617.85;86917;1281;22792;-72
2022/12/19 08:54:32;;;;;;;138.00;64.80;;;;;;;-1.73;87.99;100610.04;86994;1278;22458;-73
2022/12/19 08:56:34;;;;;;;123.90;63.70;;;;;;;-1.74;87.97;100604.83;86842;1284;22987;-74
2022/12/19 08:58:35;;;;;;;128.20;68.70;;;;;;;-1.75;87.93;100600.66;86649;1288;98192;-73
2022/12/19 09:00:36;;;;;;;;;;;;;;;-1.76;87.95;100598.56;86914;1280;22536;-74
2022/12/19 09:02:40;;;;;;;124.70;68.00;;;;;;;-1.77;87.93;100601.63;86999;1278;23760;-73
2022/12/19 09:04:41;;;;;;;110.00;59.80;;;;;;;-1.78;87.97;100608.14;86984;1286;98058;-74
2022/12/19 09:06:42;;;;;;;100.00;51.60;;;;;;;-1.79;87.77;100608.65;86918;1294;22549;-74
2022/12/19 09:08:43;;;;;;;127.10;65.70;;;;;;;-1.80;87.89;100604.30;86944;1288;22634;-74
2022/12/19 09:10:45;;;;;;;106.80;55.80;;;;;;;-1.81;87.91;100602.39;86910;1285;99563;-73
2022/12/19 09:12:46;;;;;;;119.90;63.90;;;;;;;-1.81;87.80;100606.34;87055;1290;22494;-73
2022/12/19 09:14:47;;;;;;;108.70;55.90;;;;;;;-1.81;87.84;100614.09;87071;1284;22594;-74
2022/12/19 09:16:48;;;;;;;100.40;53.10;;;;;;;-1.83;87.82;100611.13;86997;1284;100021;-74
2022/12/19 09:18:52;;;;;;;79.30;43.90;;;;;;;-1.82;87.87;100611.48;86989;1295;22737;-73
2022/12/19 09:20:58;;;;;;;63.60;32.80;;;;;;;-1.82;87.97;100614.93;87598;1284;24219;-74
2022/12/19 09:23:00;;;;;;;100.10;50.70;;;;;;;-1.81;87.94;100612.55;87875;1292;97675;-75
2022/12/19 09:25:01;;;;;;;29.00;19.00;;;;;;;-1.81;87.96;100608.24;87737;1298;22509;-75
2022/12/19 09:27:02;;;;;;;;;;;;;;;-1.79;88.01;100601.58;87886;1295;99316;-74
2022/12/19 09:29:04;;;;;;;104.40;54.00;;;;;;;-1.78;87.96;100606.77;87953;1294;22478;-74
2022/12/19 09:31:10;;;;;;;109.20;54.90;;;;;;;-1.77;87.99;100606.29;87820;1295;22716;-74
2022/12/19 09:33:11;;;;;;;93.10;51.80;;;;;;;-1.76;88.06;100600.28;87427;1287;98517;-74
2022/12/19 09:35:12;;;;;;;;;;;;;;;-1.76;88.08;100585.83;87821;1295;22458;-75
2022/12/19 09:37:14;;;;;;;31.30;18.30;;;;;;;-1.75;88.05;100575.67;87750;1288;22913;-75
2022/12/19 09:39:17;;;;;;;93.00;47.50;;;;;;;-1.72;88.22;100574.20;87570;1285;99670;-75
2022/12/19 09:41:55;;;;;;;71.20;38.20;;;;;;;-1.70;88.13;100568.39;87498;1284;22584;-75
2022/12/19 09:44:51;;;;;;;13.10;10.00;;;;;;;-1.68;88.21;100558.27;87575;1285;22651;-74
2022/12/19 09:46:58;;;;;;;49.70;25.10;;;;;;;-1.65;88.37;100559.05;87146;1291;98147;-75
2022/12/19 09:49:00;;;;;;;65.20;33.20;;;;;;;-1.61;88.47;100565.02;87051;1298;23856;-75
2022/12/19 09:51:12;;;;;;;75.50;40.20;;;;;;;-1.58;88.50;100565.45;87384;1294;22617;-75
2022/12/19 09:53:38;;;;;;;79.70;40.50;;;;;;;-1.56;88.49;100567.92;88025;1314;24247;-76
2022/12/19 09:55:41;;;;;;;54.40;29.20;;;;;;;-1.53;88.52;100559.88;87719;1307;22610;-76
2022/12/19 09:58:12;;;;;;;18.80;13.00;;;;;;;-1.54;88.60;100552.27;87540;1300;98259;-76
2022/12/19 10:00:19;;;;;;;13.50;10.20;;;;;;;-1.48;88.57;100565.17;87696;1296;22502;-75
2022/12/19 10:02:51;;;;;;;79.70;37.80;;;;;;;-1.46;88.69;100564.55;87799;1299;23068;-75
2022/12/19 10:05:27;;;;;;;54.80;32.00;;;;;;;-1.44;88.65;100569.44;87565;1301;98669;-75
2022/12/19 10:07:29;;;;;;;68.20;36.40;;;;;;;-1.42;88.66;100577.45;87621;1297;21975;-77
2022/12/19 10:10:18;;;;;;;62.90;32.90;;;;;;;-1.41;88.58;100571.42;87603;1298;99228;-76
2022/12/19 10:12:39;;;;;;;20.00;11.30;;;;;;;-1.39;88.71;100565.77;87869;1312;22491;-77
2022/12/19 10:15:01;;;;;;;9.10;7.80;;;;;;;-1.37;88.69;100555.67;87891;1294;22163;-76
2022/12/19 10:20:51;;;;;;;11.70;8.80;;;;;;;-1.29;88.87;100542.05;87479;1303;22465;-75
2022/12/19 10:23:38;;;;;;;;;;;;;;;;;;;;;
2022/12/19 10:26:17;;;;;;;;;;;;;;;-1.22;88.83;100531.38;86854;1324;22722;-75
2022/12/19 10:29:12;;;;;;;11.30;8.10;;;;;;;-1.21;88.98;100522.59;86615;1316;84267;-74
2022/12/19 10:31:54;;;;;;;22.70;13.30;;;;;;;-1.18;89.01;100521.30;86796;1324;22549;-75
2022/12/19 10:41:26;;;;;;;30.40;18.40;;;;;;;-1.10;88.98;100503.38;86161;1315;99211;-76
2022/12/19 10:44:18;;;;;;;;;;;;;;;;;;;;;
2022/12/19 10:46:44;;;;;;;40.00;20.00;;;;;;;-1.06;89.19;100497.77;85793;1315;97993;-75
2022/12/19 10:48:51;;;;;;;80.70;43.30;;;;;;;-1.07;89.18;100484.98;85892;1316;25080;-74
2022/12/19 10:50:54;;;;;;;74.90;40.40;;;;;;;-1.04;89.04;100492.64;85898;1324;23027;-75
2022/12/19 11:14:28;;;;;;;18.50;12.30;;;;;;;-0.49;88.70;100456.55;84474;1311;554743;-74
2022/12/19 11:16:35;;;;;;;9.80;8.30;;;;;;;-0.53;88.83;100449.06;85531;1304;98150;-73
2022/12/19 11:18:46;;;;;;;12.50;9.20;;;;;;;-0.56;89.02;100441.57;85578;1294;157195;-73
2022/12/19 11:21:13;;;;;;;79.00;42.30;;;;;;;-0.59;89.16;100435.13;85533;1293;22493;-74
2022/12/19 11:23:14;;;;;;;81.60;40.10;;;;;;;-0.62;89.21;100429.20;86557;1285;98921;-73
2022/12/19 11:25:20;;;;;;;73.80;38.10;;;;;;;-0.65;89.19;100427.59;86492;1288;25571;-73
2022/12/19 11:27:44;;;;;;;12.50;9.90;;;;;;;-0.67;89.12;100428.41;86499;1295;22580;-73
2022/12/19 11:29:51;;;;;;;16.10;12.30;;;;;;;-0.69;89.15;100430.27;87680;1285;97888;-74
2022/12/19 11:34:28;;;;;;;59.50;30.00;;;;;;;-0.73;89.26;100424.66;87174;1298;99024;-76
2022/12/19 11:37:17;;;;;;;13.60;10.00;;;;;;;-0.73;89.33;100428.63;87447;1284;24379;-76
2022/12/19 11:39:32;;;;;;;41.90;24.10;;;;;;;-0.74;89.29;100429.13;86943;1300;27208;-74
2022/12/19 11:41:45;;;;;;;75.60;42.70;;;;;;;-0.78;89.34;100421.63;86761;1294;97839;-75
2022/12/19 11:44:02;;;;;;;13.50;10.20;;;;;;;-0.83;89.27;100409.42;86972;1291;22892;-74
2022/12/19 11:46:26;;;;;;;45.10;24.30;;;;;;;-0.76;89.23;100421.98;87039;1294;24266;-74
2022/12/19 11:49:02;;;;;;;22.60;14.70;;;;;;;-0.77;89.37;100422.33;87093;1302;23696;-75